createdAt,value
2023-01-11T00:00:40.193Z,51.16
2023-01-11T00:03:07.747Z,51.05
2023-01-11T00:05:39.979Z,49.97
2023-01-11T00:08:08.353Z,50.47
2023-01-11T00:10:36.206Z,50.36
2023-01-11T00:13:04.064Z,50.00
2023-01-11T00:15:31.670Z,50.69
2023-01-11T00:17:58.924Z,51.93
2023-01-11T00:20:26.248Z,52.04
2023-01-11T00:22:53.570Z,53.90
2023-01-11T00:25:20.773Z,53.19
2023-01-11T00:27:49.429Z,53.79
2023-01-11T00:30:18.246Z,52.56
2023-01-11T00:32:46.304Z,52.70
2023-01-11T00:35:14.161Z,52.72
2023-01-11T00:37:41.573Z,52.52
2023-01-11T00:40:09.421Z,52.53
2023-01-11T00:42:55.002Z,53.09
2023-01-11T00:45:40.836Z,54.77
2023-01-11T00:48:10.679Z,55.18
2023-01-11T00:50:40.500Z,56.33
2023-01-11T00:53:08.864Z,55.33
2023-01-11T00:55:36.773Z,57.28
2023-01-11T00:58:04.397Z,59.19
2023-01-11T01:00:32.091Z,58.56
2023-01-11T01:02:59.388Z,57.12
2023-01-11T01:05:26.786Z,57.74
2023-01-11T01:07:54.118Z,57.78
2023-01-11T01:10:21.867Z,58.70
2023-01-11T01:13:07.399Z,60.43
2023-01-11T01:15:34.914Z,59.08
2023-01-11T01:18:02.329Z,61.84
2023-01-11T01:20:29.703Z,61.54
2023-01-11T01:22:57.409Z,60.73
2023-01-11T01:25:24.891Z,59.71
2023-01-11T01:27:52.221Z,61.01
2023-01-11T01:30:19.612Z,61.44
2023-01-11T01:32:46.915Z,62.18
2023-01-11T01:35:14.303Z,62.68
2023-01-11T01:37:43.796Z,61.50
2023-01-11T01:40:11.686Z,61.35
2023-01-11T01:42:38.946Z,60.63
2023-01-11T01:45:18.429Z,62.16
2023-01-11T01:47:49.069Z,61.55
2023-01-11T01:50:22.594Z,61.32
2023-01-11T01:52:53.353Z,60.96
2023-01-11T01:55:30.494Z,62.39
2023-01-11T01:57:59.968Z,62.30
2023-01-11T02:00:28.775Z,62.22
2023-01-11T02:02:58.810Z,62.81
2023-01-11T02:05:26.683Z,61.41
2023-01-11T02:07:57.325Z,60.58
2023-01-11T02:10:27.824Z,58.78
2023-01-11T02:13:11.134Z,59.50
2023-01-11T02:15:38.755Z,60.29
2023-01-11T02:18:11.736Z,58.48
2023-01-11T02:20:59.799Z,56.25
2023-01-11T02:23:42.136Z,56.97
2023-01-11T02:26:33.183Z,58.56
2023-01-11T02:29:29.859Z,57.19
2023-01-11T02:32:27.474Z,56.14
2023-01-11T02:35:12.406Z,57.78
2023-01-11T02:38:01.994Z,58.35
2023-01-11T02:41:07.866Z,58.28
2023-01-11T02:44:15.982Z,58.33
2023-01-11T02:46:55.884Z,58.35
2023-01-11T02:49:57.076Z,58.52
2023-01-11T02:52:38.900Z,56.08
2023-01-11T02:55:08.201Z,58.18
2023-01-11T02:57:39.640Z,57.75
2023-01-11T03:00:08.535Z,56.96
2023-01-11T03:02:35.976Z,58.32
2023-01-11T03:05:10.503Z,60.93
2023-01-11T03:07:59.435Z,61.36
2023-01-11T03:10:45.463Z,60.31
2023-01-11T03:13:38.583Z,59.72
2023-01-11T03:16:27.333Z,58.90
2023-01-11T03:19:03.725Z,60.19
2023-01-11T03:21:49.171Z,60.77
2023-01-11T03:24:24.004Z,60.26
2023-01-11T03:27:04.348Z,60.48
2023-01-11T03:30:13.632Z,60.20
2023-01-11T03:32:46.967Z,60.71
2023-01-11T03:35:25.543Z,62.50
2023-01-11T03:38:03.511Z,61.76
2023-01-11T03:40:36.251Z,62.20
2023-01-11T03:43:13.508Z,62.38
2023-01-11T03:45:46.931Z,64.15
2023-01-11T03:48:19.815Z,63.11
2023-01-11T03:50:49.766Z,62.95
2023-01-11T03:53:20.758Z,62.36
2023-01-11T03:55:53.327Z,60.57
2023-01-11T03:58:20.733Z,59.80
2023-01-11T04:00:49.473Z,59.88
2023-01-11T04:03:16.783Z,62.34
2023-01-11T04:05:47.626Z,62.76
2023-01-11T04:08:14.955Z,62.67
2023-01-11T04:10:42.284Z,62.08
2023-01-11T04:13:09.620Z,62.30
2023-01-11T04:15:37.277Z,59.56
2023-01-11T04:18:05.123Z,58.82
2023-01-11T04:20:34.055Z,60.04
2023-01-11T04:23:01.470Z,60.66
2023-01-11T04:25:28.792Z,60.42
2023-01-11T04:27:56.221Z,60.95
2023-01-11T04:30:23.684Z,61.59
2023-01-11T04:32:51.077Z,61.89
2023-01-11T04:35:18.503Z,62.72
2023-01-11T04:37:45.702Z,62.22
2023-01-11T04:40:13.234Z,62.16
2023-01-11T04:42:40.475Z,62.90
2023-01-11T04:45:08.394Z,61.61
2023-01-11T04:47:35.591Z,61.05
2023-01-11T04:50:02.873Z,61.93
2023-01-11T04:52:30.182Z,62.22
2023-01-11T04:54:57.456Z,60.54
2023-01-11T04:57:25.302Z,59.45
2023-01-11T04:59:52.898Z,58.14
2023-01-11T05:02:20.178Z,59.57
2023-01-11T05:04:47.429Z,59.80
2023-01-11T05:07:14.818Z,59.41
2023-01-11T05:09:42.191Z,59.15
2023-01-11T05:12:09.527Z,58.22
2023-01-11T05:14:36.873Z,58.84
2023-01-11T05:17:04.165Z,58.52
2023-01-11T05:19:31.540Z,59.34
2023-01-11T05:21:59.027Z,59.47
2023-01-11T05:24:26.350Z,59.78
2023-01-11T05:26:53.659Z,59.20
2023-01-11T05:29:21.826Z,59.23
2023-01-11T05:31:49.276Z,59.62
2023-01-11T05:34:17.295Z,60.14
2023-01-11T05:36:45.087Z,62.97
2023-01-11T05:39:13.643Z,63.42
2023-01-11T05:41:41.069Z,64.09
2023-01-11T05:44:31.086Z,64.26
2023-01-11T05:46:58.798Z,64.22
2023-01-11T05:49:26.314Z,64.18
2023-01-11T05:51:53.753Z,64.03
2023-01-11T05:54:21.164Z,65.30
2023-01-11T05:56:48.553Z,63.90
2023-01-11T05:59:15.861Z,63.85
2023-01-11T06:01:43.433Z,62.65
2023-01-11T06:04:10.844Z,60.46
2023-01-11T06:06:38.291Z,58.92
2023-01-11T06:09:05.790Z,58.98
2023-01-11T06:11:33.065Z,57.11
2023-01-11T06:14:00.453Z,58.68
2023-01-11T06:16:27.833Z,57.88
2023-01-11T06:18:55.153Z,56.69
2023-01-11T06:21:22.502Z,54.51
2023-01-11T06:23:53.342Z,54.95
2023-01-11T06:26:22.474Z,56.49
2023-01-11T06:28:50.602Z,57.17
2023-01-11T06:31:18.755Z,58.94
2023-01-11T06:33:56.059Z,59.93
2023-01-11T06:36:23.584Z,59.57
2023-01-11T06:38:52.405Z,61.11
2023-01-11T06:41:19.961Z,60.97
2023-01-11T06:43:47.443Z,60.70
2023-01-11T06:46:16.223Z,61.90
2023-01-11T06:48:44.507Z,63.11
2023-01-11T06:51:13.052Z,62.81
2023-01-11T06:53:41.981Z,61.39
2023-01-11T06:56:18.956Z,61.42
2023-01-11T06:58:47.819Z,60.39
2023-01-11T07:01:18.184Z,60.64
2023-01-11T07:03:45.988Z,60.47
2023-01-11T07:06:14.094Z,61.62
2023-01-11T07:08:42.808Z,61.18
2023-01-11T07:11:28.997Z,58.71
2023-01-11T07:13:56.418Z,57.34
2023-01-11T07:16:23.813Z,59.20
2023-01-11T07:18:51.238Z,56.32
2023-01-11T07:21:18.836Z,56.00
2023-01-11T07:23:48.370Z,57.65
2023-01-11T07:26:17.452Z,58.35
2023-01-11T07:28:45.028Z,61.53
2023-01-11T07:31:12.510Z,61.22
2023-01-11T07:33:39.956Z,61.46
2023-01-11T07:36:07.623Z,61.19
2023-01-11T07:38:35.179Z,62.69
2023-01-11T07:41:22.690Z,62.97
2023-01-11T07:43:50.268Z,63.63
2023-01-11T07:46:17.944Z,63.30
2023-01-11T07:48:45.400Z,61.55
2023-01-11T07:51:13.466Z,62.54
2023-01-11T07:53:40.855Z,63.23
2023-01-11T07:56:08.212Z,61.70
2023-01-11T07:58:35.592Z,61.84
2023-01-11T08:01:02.959Z,61.09
2023-01-11T08:03:30.538Z,61.67
2023-01-11T08:05:57.986Z,61.81
2023-01-11T08:08:25.413Z,61.16
2023-01-11T08:11:12.735Z,62.05
2023-01-11T08:13:59.155Z,63.63
2023-01-11T08:16:27.491Z,61.49
2023-01-11T08:18:54.928Z,61.11
2023-01-11T08:21:22.581Z,60.31
2023-01-11T08:23:49.972Z,59.47
2023-01-11T08:26:18.214Z,59.03
2023-01-11T08:28:45.937Z,58.19
2023-01-11T08:31:13.465Z,57.69
2023-01-11T08:33:41.032Z,57.94
2023-01-11T08:36:11.114Z,55.65
2023-01-11T08:38:38.882Z,54.25
2023-01-11T08:41:10.781Z,53.23
2023-01-11T08:43:38.899Z,54.14
2023-01-11T08:46:07.026Z,55.14
2023-01-11T08:48:34.908Z,54.98
2023-01-11T08:51:02.442Z,55.07
2023-01-11T08:53:30.070Z,54.76
2023-01-11T08:55:57.426Z,55.03
2023-01-11T08:58:25.488Z,54.43
2023-01-11T09:00:52.859Z,54.85
2023-01-11T09:03:20.794Z,54.53
2023-01-11T09:05:48.133Z,54.35
2023-01-11T09:08:15.486Z,53.91
2023-01-11T09:10:42.802Z,53.85
2023-01-11T09:13:10.065Z,52.54
2023-01-11T09:15:37.331Z,51.56
2023-01-11T09:18:05.221Z,52.35
2023-01-11T09:20:32.835Z,51.91
2023-01-11T09:23:00.149Z,50.49
2023-01-11T09:25:27.627Z,51.01
2023-01-11T09:27:54.924Z,51.70
2023-01-11T09:30:23.633Z,51.39
2023-01-11T09:32:58.148Z,51.21
2023-01-11T09:35:27.068Z,52.05
2023-01-11T09:37:56.276Z,51.25
2023-01-11T09:40:47.154Z,50.93
2023-01-11T09:43:17.521Z,48.04
2023-01-11T09:45:46.928Z,47.21
2023-01-11T09:48:43.462Z,47.34
2023-01-11T09:51:16.588Z,48.05
2023-01-11T09:53:50.437Z,48.42
2023-01-11T09:56:25.593Z,47.77
2023-01-11T09:59:05.803Z,48.74
2023-01-11T10:02:01.382Z,49.55
2023-01-11T10:05:06.186Z,49.68
2023-01-11T10:18:31.572Z,45.32
2023-01-11T10:19:48.356Z,45.12
2023-01-11T10:22:33.570Z,44.07
2023-01-11T10:25:05.604Z,42.50
2023-01-11T10:27:40.420Z,41.82
2023-01-11T10:30:34.193Z,42.22
2023-01-11T10:33:45.542Z,42.51
2023-01-11T10:36:50.448Z,43.70
2023-01-11T10:39:55.819Z,43.88
2023-01-11T10:42:28.722Z,43.20
2023-01-11T10:45:25.904Z,43.45
2023-01-11T10:48:18.159Z,43.61
2023-01-11T10:50:54.027Z,41.93
2023-01-11T10:53:29.553Z,41.65
2023-01-11T10:56:15.706Z,41.18
2023-01-11T10:58:55.184Z,41.55
2023-01-11T11:01:46.297Z,42.11
2023-01-11T11:04:35.803Z,42.55
2023-01-11T11:07:25.422Z,42.73
2023-01-11T11:10:02.692Z,43.22
2023-01-11T11:12:35.194Z,43.53
2023-01-11T11:15:07.994Z,44.58
2023-01-11T11:17:39.931Z,41.59
2023-01-11T11:20:16.030Z,42.48
2023-01-11T11:22:45.122Z,42.75
2023-01-11T11:25:23.056Z,42.89
2023-01-11T11:27:55.687Z,43.24
2023-01-11T11:30:39.173Z,42.97
2023-01-11T11:33:31.863Z,42.85
2023-01-11T11:36:05.162Z,42.04
2023-01-11T11:38:38.886Z,43.01
2023-01-11T11:41:14.561Z,43.34
2023-01-11T11:43:44.868Z,43.70
2023-01-11T11:46:20.890Z,44.17
2023-01-11T11:49:11.675Z,44.25
2023-01-11T11:51:41.328Z,44.26
2023-01-11T11:54:30.618Z,44.60
2023-01-11T11:57:12.202Z,45.40
2023-01-11T11:59:47.305Z,43.96
2023-01-11T12:02:32.291Z,44.09
2023-01-11T12:05:05.204Z,44.73
2023-01-11T12:07:49.792Z,45.08
2023-01-11T12:10:24.579Z,45.25
2023-01-11T12:13:03.719Z,45.56
2023-01-11T12:15:33.348Z,45.60
2023-01-11T12:18:34.185Z,45.79
2023-01-11T12:21:21.995Z,45.63
2023-01-11T12:24:21.345Z,45.63
2023-01-11T12:27:13.434Z,44.56
2023-01-11T12:30:02.000Z,45.54
2023-01-11T12:33:07.803Z,45.52
2023-01-11T12:35:53.634Z,46.13
2023-01-11T12:38:24.461Z,45.78
2023-01-11T12:40:52.249Z,45.42
2023-01-11T12:43:49.999Z,44.31
2023-01-11T12:46:31.663Z,45.04
2023-01-11T12:49:17.886Z,44.77
2023-01-11T12:52:03.015Z,44.79
2023-01-11T12:54:52.406Z,44.95
2023-01-11T12:57:22.468Z,45.82
2023-01-11T13:00:01.814Z,46.14
2023-01-11T13:03:07.011Z,45.13
2023-01-11T13:06:00.566Z,46.13
2023-01-11T13:08:53.356Z,45.40
2023-01-11T13:12:11.382Z,46.15
2023-01-11T13:14:44.506Z,46.17
2023-01-11T13:17:47.193Z,45.46
2023-01-11T13:20:40.352Z,44.05
2023-01-11T13:23:29.380Z,44.38
2023-01-11T13:25:58.287Z,43.83
2023-01-11T13:28:38.638Z,43.89
2023-01-11T13:31:09.357Z,43.88
2023-01-11T13:33:40.789Z,44.00
2023-01-11T13:36:22.897Z,44.12
2023-01-11T13:38:54.011Z,43.88
2023-01-11T13:41:25.901Z,44.87
2023-01-11T13:44:06.157Z,46.08
2023-01-11T13:46:48.805Z,46.76
2023-01-11T13:49:53.604Z,47.41
2023-01-11T13:52:35.489Z,48.29
2023-01-11T13:55:26.886Z,48.59
2023-01-11T13:58:12.742Z,48.66
2023-01-11T14:01:07.579Z,48.62
2023-01-11T14:03:52.647Z,48.31
2023-01-11T14:06:35.671Z,47.73
2023-01-11T14:09:27.761Z,47.19
2023-01-11T14:12:07.092Z,46.94
2023-01-11T14:14:55.427Z,47.23
2023-01-11T14:17:28.910Z,47.58
2023-01-11T14:20:17.925Z,48.16
2023-01-11T14:23:09.668Z,48.96
2023-01-11T14:26:09.183Z,49.81
2023-01-11T14:28:56.535Z,50.03
2023-01-11T14:31:49.637Z,50.49
2023-01-11T14:34:25.625Z,51.11
2023-01-11T14:37:10.897Z,51.31
2023-01-11T14:39:46.995Z,51.49
2023-01-11T14:42:38.422Z,51.80
2023-01-11T14:45:16.844Z,52.17
2023-01-11T14:48:02.478Z,52.20
2023-01-11T14:51:01.343Z,51.43
2023-01-11T14:53:33.485Z,51.96
2023-01-11T14:56:00.891Z,52.04
2023-01-11T14:58:31.771Z,52.29
2023-01-11T15:00:59.093Z,51.96
2023-01-11T15:03:42.841Z,51.96
2023-01-11T15:06:20.580Z,51.97
2023-01-11T15:08:49.975Z,52.27
2023-01-11T15:11:40.845Z,52.38
2023-01-11T15:14:23.061Z,52.75
2023-01-11T15:17:15.794Z,53.18
2023-01-11T15:19:44.281Z,52.72
2023-01-11T15:22:32.296Z,52.73
2023-01-11T15:25:06.737Z,53.10
2023-01-11T15:27:37.159Z,53.20
2023-01-11T15:30:07.318Z,53.41
2023-01-11T15:32:36.195Z,53.86
2023-01-11T15:35:39.064Z,53.45
2023-01-11T15:38:18.336Z,54.08
2023-01-11T15:40:46.546Z,54.18
2023-01-11T15:43:37.279Z,54.84
2023-01-11T15:46:29.518Z,54.63
2023-01-11T15:49:08.745Z,54.66
2023-01-11T15:52:31.351Z,53.28
2023-01-11T15:55:29.536Z,54.08
2023-01-11T15:58:41.464Z,53.87
2023-01-11T16:01:26.652Z,53.72
2023-01-11T16:04:25.579Z,54.32
2023-01-11T16:07:02.211Z,54.58
2023-01-11T16:10:03.825Z,54.45
2023-01-11T16:12:56.505Z,54.87
2023-01-11T16:15:51.660Z,56.13
2023-01-11T16:18:44.199Z,57.90
2023-01-11T16:21:21.370Z,57.21
2023-01-11T16:23:49.218Z,57.66
2023-01-11T16:26:19.667Z,58.16
2023-01-11T16:28:53.147Z,58.80
2023-01-11T16:31:20.859Z,58.81
2023-01-11T16:33:49.947Z,58.55
2023-01-11T16:36:23.478Z,59.30
2023-01-11T16:39:02.403Z,58.85
2023-01-11T16:41:39.176Z,60.11
2023-01-11T16:44:09.209Z,59.13
2023-01-11T16:46:42.762Z,59.09
2023-01-11T16:49:10.523Z,58.26
2023-01-11T16:51:37.999Z,60.88
2023-01-11T16:54:05.964Z,60.07
2023-01-11T16:56:35.408Z,59.92
2023-01-11T16:59:26.500Z,61.65
2023-01-11T17:02:04.074Z,61.85
2023-01-11T17:04:37.422Z,61.31
2023-01-11T17:07:22.844Z,61.75
2023-01-11T17:09:50.528Z,61.52
2023-01-11T17:12:22.776Z,61.13
2023-01-11T17:15:23.124Z,61.62
2023-01-11T17:17:50.978Z,61.44
2023-01-11T17:20:29.255Z,62.23
2023-01-11T17:22:57.851Z,61.95
2023-01-11T17:25:37.293Z,59.84
2023-01-11T17:28:19.819Z,60.07
2023-01-11T17:30:51.008Z,60.08
2023-01-11T17:33:41.577Z,59.64
2023-01-11T17:36:09.582Z,59.99
2023-01-11T17:38:38.320Z,60.30
2023-01-11T17:41:27.692Z,60.72
2023-01-11T17:44:14.120Z,60.72
2023-01-11T17:46:41.736Z,61.24
2023-01-11T17:49:21.382Z,61.37
2023-01-11T17:51:49.089Z,61.60
2023-01-11T17:54:24.531Z,61.35
2023-01-11T17:57:00.769Z,61.64
2023-01-11T17:59:30.131Z,61.47
2023-01-11T18:02:02.738Z,61.84
2023-01-11T18:04:31.865Z,62.05
2023-01-11T18:07:28.472Z,62.57
2023-01-11T18:10:02.970Z,62.95
2023-01-11T18:12:33.958Z,62.39
2023-01-11T18:15:04.799Z,62.46
2023-01-11T18:17:33.135Z,63.02
2023-01-11T18:20:22.370Z,63.17
2023-01-11T18:23:13.518Z,64.02
2023-01-11T18:25:41.568Z,63.86
2023-01-11T18:28:11.673Z,64.31
2023-01-11T18:30:41.984Z,64.53
2023-01-11T18:33:24.980Z,64.74
2023-01-11T18:35:55.371Z,65.54
2023-01-11T18:38:28.706Z,65.35
2023-01-11T18:40:58.108Z,65.13
2023-01-11T18:43:31.141Z,66.31
2023-01-11T18:45:58.515Z,66.07
2023-01-11T18:48:25.869Z,67.33
2023-01-11T18:50:54.562Z,66.99
2023-01-11T18:53:23.704Z,67.19
2023-01-11T18:55:51.238Z,67.11
2023-01-11T18:58:18.847Z,67.40
2023-01-11T19:00:46.414Z,67.89
2023-01-11T19:05:42.363Z,68.10
2023-01-11T19:08:09.721Z,68.15
2023-01-11T19:10:37.040Z,67.71
2023-01-11T19:13:04.489Z,67.26
2023-01-11T19:15:34.675Z,66.07
2023-01-11T19:18:05.288Z,65.78
2023-01-11T19:20:32.659Z,66.72
2023-01-11T19:23:00.121Z,66.29
2023-01-11T19:25:27.519Z,67.02
2023-01-11T19:27:55.133Z,66.32
2023-01-11T19:30:22.477Z,65.55
2023-01-11T19:32:51.706Z,65.73
2023-01-11T19:35:19.271Z,65.59
2023-01-11T19:37:46.620Z,65.61
2023-01-11T19:40:14.041Z,65.95
2023-01-11T19:42:41.377Z,66.34
2023-01-11T19:45:09.268Z,66.38
2023-01-11T19:47:36.591Z,66.20
2023-01-11T19:50:04.508Z,66.50
2023-01-11T19:52:31.962Z,66.13
2023-01-11T19:54:59.490Z,65.73
2023-01-11T19:57:30.272Z,65.94
2023-01-11T19:59:57.632Z,65.66
2023-01-11T20:02:25.161Z,66.23
2023-01-11T20:04:53.123Z,66.36
2023-01-11T20:07:20.931Z,65.76
2023-01-11T20:09:48.354Z,66.17
2023-01-11T20:12:16.720Z,65.58
2023-01-11T20:14:46.207Z,64.97
2023-01-11T20:17:19.228Z,64.51
2023-01-11T20:19:49.892Z,64.53
2023-01-11T20:22:17.467Z,64.90
2023-01-11T20:24:44.825Z,64.15
2023-01-11T20:27:12.126Z,65.34
2023-01-11T20:29:39.937Z,64.76
2023-01-11T20:32:31.227Z,65.99
2023-01-11T20:34:55.044Z,65.08
2023-01-11T20:37:22.717Z,64.82
2023-01-11T20:39:50.278Z,64.55
2023-01-11T20:42:18.006Z,64.64
2023-01-11T20:44:45.393Z,64.83
2023-01-11T20:47:12.767Z,65.10
2023-01-11T20:49:40.164Z,64.67
2023-01-11T20:52:07.500Z,63.39
2023-01-11T20:54:34.854Z,63.43
2023-01-11T20:57:05.826Z,63.11
2023-01-11T20:59:33.347Z,63.51
2023-01-11T21:02:00.725Z,64.33
2023-01-11T21:04:27.988Z,64.10
2023-01-11T21:06:55.290Z,64.12
2023-01-11T21:09:22.910Z,64.22
2023-01-11T21:11:53.857Z,64.61
2023-01-11T21:14:22.387Z,64.30
2023-01-11T21:16:49.921Z,64.41
2023-01-11T21:19:17.449Z,64.62
2023-01-11T21:21:44.856Z,64.63
2023-01-11T21:24:13.959Z,63.84
2023-01-11T21:26:42.628Z,64.07
2023-01-11T21:29:11.781Z,65.32
2023-01-11T21:31:40.398Z,66.60
2023-01-11T21:34:11.505Z,65.38
2023-01-11T21:36:39.817Z,64.27
2023-01-11T21:39:07.207Z,63.69
2023-01-11T21:41:53.455Z,62.83
2023-01-11T21:44:23.100Z,63.89
2023-01-11T21:46:50.760Z,63.42
2023-01-11T21:49:18.153Z,62.72
2023-01-11T21:51:45.543Z,61.14
2023-01-11T21:54:14.857Z,61.53
2023-01-11T21:56:42.227Z,62.38
2023-01-11T21:59:10.364Z,63.10
2023-01-11T22:01:39.323Z,63.36
2023-01-11T22:04:12.951Z,63.42
2023-01-11T22:06:42.891Z,63.35
2023-01-11T22:09:11.695Z,63.31
2023-01-11T22:11:39.587Z,62.09
2023-01-11T22:14:08.664Z,60.23
2023-01-11T22:16:37.028Z,61.64
2023-01-11T22:19:07.372Z,61.55
2023-01-11T22:21:37.021Z,61.18
2023-01-11T22:24:06.871Z,65.18
2023-01-11T22:26:38.495Z,66.33
2023-01-11T22:29:16.422Z,67.72
2023-01-11T22:31:51.358Z,65.92
2023-01-11T22:34:19.364Z,68.29
2023-01-11T22:36:46.947Z,69.97
2023-01-11T22:39:16.221Z,70.11
2023-01-11T22:41:45.622Z,71.61
2023-01-11T22:44:13.992Z,71.41
2023-01-11T22:46:42.434Z,72.02
2023-01-11T22:49:10.967Z,70.49
2023-01-11T22:51:39.744Z,71.48
2023-01-11T22:54:07.157Z,74.23
2023-01-11T22:56:34.649Z,73.56
2023-01-11T22:59:02.226Z,73.12
2023-01-11T23:01:32.953Z,75.29
2023-01-11T23:04:01.720Z,77.30
2023-01-11T23:06:33.825Z,76.55
2023-01-11T23:09:01.264Z,76.63
2023-01-11T23:11:50.406Z,76.60
2023-01-11T23:14:19.121Z,76.55
2023-01-11T23:16:48.185Z,76.68
2023-01-11T23:19:17.491Z,73.74
2023-01-11T23:21:46.875Z,74.59
2023-01-11T23:24:15.738Z,74.53
2023-01-11T23:26:43.754Z,76.79
2023-01-11T23:29:11.879Z,76.45
2023-01-11T23:31:39.468Z,73.98
2023-01-11T23:34:08.449Z,71.85
2023-01-11T23:36:38.315Z,72.08
2023-01-11T23:39:07.794Z,70.36
2023-01-11T23:41:53.703Z,70.73
2023-01-11T23:44:22.663Z,69.75
2023-01-11T23:47:09.540Z,70.09
2023-01-11T23:49:37.057Z,71.33
2023-01-11T23:52:04.941Z,70.67
2023-01-11T23:54:33.737Z,70.04
2023-01-11T23:57:02.573Z,69.16
2023-01-11T23:59:30.242Z,68.22
